Southeast Iowa Regional Airport
KBRL : now visible

Airfield :











YOU CAN JOIN US ON...

 
LOGIN :

Register | Disclaimer

   EN    FR    IT 

 









Legend :    VFR   Marginal VFR   IFR   Intensive IFR   Very Intensive IFR
Visi :
Ceiling :
>= 8 km
>= 3000ft
5 to 8 km
1000 to 3000 ft
1500m to 5 km
500 to 1000 ft
800 to 1500m
200 to 500 ft
< 800m
< 200 ft
Symbols :   Thunderstorms  Fog  Heavy snow  Heavy precipitations  Wind > 20 kt







- Airport Elevation : 698 ft
- IATA code : BRL


KBRL - Southeast Iowa Regional

CURRENT METAR :
  • 211753Z AUTO 16012KT 10SM CLR 26/09 A2993 RMK AO2 SLP130 T02560094 10256 20078 58008

EXPIRED METARs :
  • 211653Z AUTO 18012KT 10SM CLR 24/08 A2994 RMK AO2 SLP137 T02390083
  • 211553Z AUTO 19010KT 10SM CLR 22/08 A2995 RMK AO2 SLP141 T02170078

TAF KBRL
Valid from the 21 at 18:00 until the 22 at 18:00 UTC


211720Z 2118/2218 18013G20KT P6SM SKC
FM212000 19015G24KT P6SM SKC
FM220000 16013KT P6SM SCT150
FM220600 16011KT P6SM BKN150 WS015/20040KT
FM221300 19013G22KT P6SM SCT035
PROB30 2215/2218 5SM -TSRA SCT030 BKN050CB
KZAU FIR / North America



MET'MAP, your aeronautical weather chart ! - Copyright ORBIFLY December 2007 - Disclaimer

ORBIFLY MET'MAP TEAM :

Programming & Development : Alexandra Zaïnal
Concept & Development : Baudouin d'Aumeries
Co-Development & Prog : Marc-Olivier Méhu
Technical & hardware support : Manuel Goepfert

Contact : metmap@orbifly.com




SOURCES & CREDITS :

   NOAA       Earth
Advisory